PAL425 RPLL-RPVE
Flight info
| Callsign | PAL425 |
|---|---|
| Flight time | 0h 36m |
| Altitude | 25000 |
| Route | VERDE2R VERDE W24 TAPER TAPER7A |
| Aircraft | A21N/M-SDE3FGHIRWY/LB1 |
Departure
| Time | 2026-04-30 12:52 |
|---|---|
| Airport | Ninoy Aquino International Airport (RPLL) |
Arrival
| Time | 2026-04-30 13:28 |
|---|---|
| Airport | Godofredo P. Ramos Airport (RPVE) |
| Time | Latitude | Longitude | Altitude | Speed | Heading |
|---|---|---|---|---|---|
| 2026-04-30 11:43 | 14.50882 | 121.01335 | 82 ft | 0 kts | 329° |
| 2026-04-30 12:36 | 14.50872 | 121.01341 | 82 ft | 2 kts | 329° |
| 2026-04-30 12:37 | 14.50859 | 121.01350 | 82 ft | 2 kts | 329° |
| 2026-04-30 12:37 | 14.50846 | 121.01357 | 82 ft | 2 kts | 329° |
| 2026-04-30 12:37 | 14.50833 | 121.01365 | 82 ft | 2 kts | 329° |
| 2026-04-30 12:37 | 14.50823 | 121.01371 | 82 ft | 0 kts | 329° |
| 2026-04-30 12:38 | 14.50813 | 121.01379 | 82 ft | 2 kts | 309° |
| 2026-04-30 12:38 | 14.50806 | 121.01392 | 82 ft | 2 kts | 284° |
| 2026-04-30 12:38 | 14.50804 | 121.01408 | 82 ft | 2 kts | 259° |
| 2026-04-30 12:38 | 14.50807 | 121.01417 | 82 ft | 0 kts | 242° |
| 2026-04-30 12:39 | 14.50811 | 121.01424 | 82 ft | 0 kts | 239° |
| 2026-04-30 12:41 | 14.50807 | 121.01416 | 82 ft | 2 kts | 239° |
| 2026-04-30 12:42 | 14.50788 | 121.01383 | 82 ft | 7 kts | 240° |
| 2026-04-30 12:42 | 14.50762 | 121.01334 | 82 ft | 5 kts | 242° |
| 2026-04-30 12:42 | 14.50729 | 121.01311 | 82 ft | 6 kts | 182° |
| 2026-04-30 12:42 | 14.50701 | 121.01321 | 82 ft | 3 kts | 159° |
| 2026-04-30 12:43 | 14.50674 | 121.01315 | 82 ft | 4 kts | 217° |
| 2026-04-30 12:43 | 14.50652 | 121.01286 | 82 ft | 5 kts | 239° |
| 2026-04-30 12:43 | 14.50625 | 121.01240 | 82 ft | 9 kts | 240° |
| 2026-04-30 12:43 | 14.50586 | 121.01170 | 82 ft | 12 kts | 240° |
| 2026-04-30 12:44 | 14.50536 | 121.01080 | 82 ft | 15 kts | 241° |
| 2026-04-30 12:44 | 14.50478 | 121.00973 | 82 ft | 18 kts | 240° |
| 2026-04-30 12:44 | 14.50409 | 121.00854 | 82 ft | 20 kts | 241° |
| 2026-04-30 12:44 | 14.50337 | 121.00720 | 82 ft | 21 kts | 240° |
| 2026-04-30 12:45 | 14.50262 | 121.00586 | 82 ft | 21 kts | 239° |
| 2026-04-30 12:45 | 14.50199 | 121.00478 | 82 ft | 20 kts | 241° |
| 2026-04-30 12:45 | 14.50133 | 121.00356 | 82 ft | 20 kts | 240° |
| 2026-04-30 12:45 | 14.50063 | 121.00230 | 82 ft | 19 kts | 240° |
| 2026-04-30 12:46 | 14.49995 | 121.00106 | 82 ft | 19 kts | 240° |
| 2026-04-30 12:46 | 14.49942 | 121.00008 | 82 ft | 7 kts | 240° |
| 2026-04-30 12:46 | 14.49915 | 120.99966 | 82 ft | 5 kts | 222° |
| 2026-04-30 12:46 | 14.49887 | 120.99960 | 82 ft | 1 kts | 166° |
| 2026-04-30 12:47 | 14.49882 | 120.99963 | 82 ft | 0 kts | 152° |
| 2026-04-30 12:47 | 14.49881 | 120.99963 | 82 ft | 0 kts | 152° |
| 2026-04-30 12:50 | 14.49880 | 120.99963 | 82 ft | 0 kts | 152° |
| 2026-04-30 12:50 | 14.49861 | 120.99974 | 82 ft | 6 kts | 152° |
| 2026-04-30 12:50 | 14.49807 | 121.00009 | 82 ft | 10 kts | 126° |
| 2026-04-30 12:50 | 14.49816 | 121.00072 | 82 ft | 0 kts | 59° |
| 2026-04-30 12:51 | 14.49824 | 121.00085 | 82 ft | 14 kts | 59° |
| 2026-04-30 12:51 | 14.50015 | 121.00428 | 82 ft | 93 kts | 60° |
| 2026-04-30 12:51 | 14.50457 | 121.01218 | 83 ft | 156 kts | 60° |
| 2026-04-30 12:51 | 14.51053 | 121.02276 | 408 ft | 179 kts | 61° |
| 2026-04-30 12:52 | 14.51668 | 121.03391 | 1104 ft | 181 kts | 61° |
| 2026-04-30 12:52 | 14.52269 | 121.04444 | 2065 ft | 169 kts | 60° |
| 2026-04-30 12:52 | 14.52842 | 121.05464 | 2725 ft | 164 kts | 60° |
| 2026-04-30 12:52 | 14.53409 | 121.06486 | 3308 ft | 167 kts | 60° |
| 2026-04-30 12:53 | 14.53991 | 121.07552 | 3739 ft | 180 kts | 60° |
| 2026-04-30 12:53 | 14.54464 | 121.08809 | 4124 ft | 198 kts | 83° |
| 2026-04-30 12:53 | 14.54158 | 121.10235 | 4487 ft | 220 kts | 116° |
| 2026-04-30 12:53 | 14.53015 | 121.11420 | 4781 ft | 245 kts | 142° |
| 2026-04-30 12:54 | 14.51531 | 121.12396 | 5205 ft | 263 kts | 146° |
| 2026-04-30 12:54 | 14.49924 | 121.13373 | 5869 ft | 268 kts | 147° |
| 2026-04-30 12:54 | 14.48237 | 121.14275 | 6410 ft | 283 kts | 160° |
| 2026-04-30 12:54 | 14.46235 | 121.14437 | 7050 ft | 293 kts | 184° |
| 2026-04-30 12:55 | 14.44229 | 121.14125 | 7831 ft | 295 kts | 188° |
| 2026-04-30 12:55 | 14.42194 | 121.13757 | 8546 ft | 297 kts | 187° |
| 2026-04-30 12:55 | 14.40167 | 121.13424 | 9251 ft | 299 kts | 185° |
| 2026-04-30 12:55 | 14.38087 | 121.13123 | 9937 ft | 301 kts | 185° |
| 2026-04-30 12:56 | 14.35982 | 121.12850 | 10538 ft | 307 kts | 184° |
| 2026-04-30 12:56 | 14.33811 | 121.12586 | 10813 ft | 323 kts | 184° |
| 2026-04-30 12:56 | 14.31498 | 121.12315 | 11071 ft | 339 kts | 184° |
| 2026-04-30 12:56 | 14.29978 | 121.12140 | 11290 ft | 347 kts | 184° |
| 2026-04-30 12:57 | 14.27529 | 121.11858 | 11813 ft | 353 kts | 184° |
| 2026-04-30 12:57 | 14.25106 | 121.11581 | 12384 ft | 355 kts | 184° |
| 2026-04-30 12:57 | 14.22643 | 121.11302 | 12965 ft | 357 kts | 184° |
| 2026-04-30 12:57 | 14.20144 | 121.11018 | 13523 ft | 360 kts | 184° |
| 2026-04-30 12:58 | 14.17641 | 121.10736 | 14059 ft | 363 kts | 184° |
| 2026-04-30 12:58 | 14.15111 | 121.10451 | 14594 ft | 366 kts | 184° |
| 2026-04-30 12:58 | 14.12582 | 121.10166 | 15114 ft | 368 kts | 184° |
| 2026-04-30 12:58 | 14.10016 | 121.09877 | 15638 ft | 370 kts | 185° |
| 2026-04-30 12:59 | 14.07421 | 121.09586 | 16156 ft | 372 kts | 185° |
| 2026-04-30 12:59 | 14.04848 | 121.09296 | 16657 ft | 374 kts | 185° |
| 2026-04-30 12:59 | 14.02260 | 121.09006 | 17158 ft | 376 kts | 185° |
| 2026-04-30 12:59 | 13.99640 | 121.08712 | 17646 ft | 378 kts | 185° |
| 2026-04-30 13:00 | 13.97001 | 121.08416 | 18097 ft | 381 kts | 185° |
| 2026-04-30 13:00 | 13.94351 | 121.08118 | 18521 ft | 384 kts | 185° |
| 2026-04-30 13:00 | 13.91680 | 121.07818 | 18941 ft | 387 kts | 185° |
| 2026-04-30 13:00 | 13.88966 | 121.07513 | 19363 ft | 389 kts | 185° |
| 2026-04-30 13:01 | 13.86260 | 121.07210 | 19767 ft | 392 kts | 185° |
| 2026-04-30 13:01 | 13.83552 | 121.06905 | 20157 ft | 395 kts | 185° |
| 2026-04-30 13:01 | 13.80804 | 121.06597 | 20543 ft | 397 kts | 185° |
| 2026-04-30 13:01 | 13.78051 | 121.06289 | 20921 ft | 400 kts | 185° |
| 2026-04-30 13:02 | 13.75272 | 121.05978 | 21299 ft | 402 kts | 185° |
| 2026-04-30 13:02 | 13.72481 | 121.05666 | 21676 ft | 404 kts | 185° |
| 2026-04-30 13:02 | 13.69653 | 121.05350 | 22051 ft | 405 kts | 185° |
| 2026-04-30 13:02 | 13.66854 | 121.05036 | 22415 ft | 407 kts | 185° |
| 2026-04-30 13:03 | 13.64011 | 121.04710 | 22810 ft | 408 kts | 185° |
| 2026-04-30 13:03 | 13.61184 | 121.04391 | 23177 ft | 409 kts | 185° |
| 2026-04-30 13:03 | 13.58331 | 121.04082 | 23507 ft | 412 kts | 185° |
| 2026-04-30 13:03 | 13.55465 | 121.03771 | 23853 ft | 414 kts | 185° |
| 2026-04-30 13:04 | 13.52604 | 121.03607 | 24174 ft | 416 kts | 176° |
| 2026-04-30 13:04 | 13.49753 | 121.04145 | 24510 ft | 417 kts | 161° |
| 2026-04-30 13:04 | 13.47114 | 121.05406 | 24836 ft | 419 kts | 148° |
| 2026-04-30 13:04 | 13.44651 | 121.07101 | 24964 ft | 420 kts | 145° |
| 2026-04-30 13:05 | 13.42284 | 121.08801 | 24975 ft | 419 kts | 144° |
| 2026-04-30 13:05 | 13.39889 | 121.10519 | 24986 ft | 419 kts | 145° |
| 2026-04-30 13:05 | 13.37467 | 121.12238 | 24993 ft | 420 kts | 145° |
| 2026-04-30 13:06 | 13.32621 | 121.15645 | 25004 ft | 419 kts | 145° |
| 2026-04-30 13:06 | 13.30220 | 121.17327 | 25005 ft | 419 kts | 145° |
| 2026-04-30 13:06 | 13.27792 | 121.19029 | 25002 ft | 419 kts | 145° |
| 2026-04-30 13:06 | 13.25364 | 121.20730 | 24995 ft | 419 kts | 145° |
| 2026-04-30 13:07 | 13.22958 | 121.22417 | 24983 ft | 418 kts | 145° |
| 2026-04-30 13:07 | 13.20543 | 121.24110 | 24973 ft | 419 kts | 145° |
| 2026-04-30 13:07 | 13.18147 | 121.25790 | 24968 ft | 419 kts | 145° |
| 2026-04-30 13:07 | 13.15732 | 121.27482 | 24969 ft | 418 kts | 145° |
| 2026-04-30 13:08 | 13.13298 | 121.29188 | 24973 ft | 419 kts | 145° |
| 2026-04-30 13:08 | 13.10908 | 121.30862 | 24977 ft | 419 kts | 145° |
| 2026-04-30 13:08 | 13.08493 | 121.32554 | 24983 ft | 419 kts | 145° |
| 2026-04-30 13:08 | 13.06058 | 121.34259 | 24989 ft | 419 kts | 145° |
| 2026-04-30 13:09 | 13.03678 | 121.35925 | 24991 ft | 418 kts | 145° |
| 2026-04-30 13:09 | 13.01265 | 121.37614 | 24993 ft | 418 kts | 145° |
| 2026-04-30 13:09 | 12.98840 | 121.39311 | 24989 ft | 418 kts | 145° |
| 2026-04-30 13:09 | 12.96465 | 121.40971 | 24807 ft | 418 kts | 145° |
| 2026-04-30 13:10 | 12.94283 | 121.42497 | 24485 ft | 415 kts | 145° |
| 2026-04-30 13:10 | 12.91906 | 121.44158 | 24050 ft | 412 kts | 144° |
| 2026-04-30 13:10 | 12.89535 | 121.45815 | 23581 ft | 408 kts | 144° |
| 2026-04-30 13:10 | 12.87195 | 121.47449 | 23110 ft | 405 kts | 144° |
| 2026-04-30 13:11 | 12.84860 | 121.49080 | 22618 ft | 402 kts | 144° |
| 2026-04-30 13:11 | 12.82540 | 121.50700 | 22127 ft | 398 kts | 144° |
| 2026-04-30 13:11 | 12.80287 | 121.52273 | 21579 ft | 397 kts | 144° |
| 2026-04-30 13:11 | 12.77991 | 121.53876 | 20939 ft | 390 kts | 143° |
| 2026-04-30 13:12 | 12.75802 | 121.55403 | 20187 ft | 383 kts | 143° |
| 2026-04-30 13:12 | 12.73587 | 121.56950 | 19410 ft | 382 kts | 143° |
| 2026-04-30 13:12 | 12.71398 | 121.58477 | 19061 ft | 378 kts | 143° |
| 2026-04-30 13:13 | 12.67078 | 121.61492 | 18196 ft | 373 kts | 143° |
| 2026-04-30 13:13 | 12.64939 | 121.62985 | 17735 ft | 370 kts | 143° |
| 2026-04-30 13:13 | 12.60678 | 121.65957 | 16786 ft | 366 kts | 143° |
| 2026-04-30 13:14 | 12.58589 | 121.67413 | 16312 ft | 364 kts | 143° |
| 2026-04-30 13:14 | 12.56477 | 121.68886 | 15812 ft | 363 kts | 143° |
| 2026-04-30 13:14 | 12.52311 | 121.71789 | 14816 ft | 361 kts | 143° |
| 2026-04-30 13:15 | 12.50427 | 121.73101 | 14365 ft | 360 kts | 143° |
| 2026-04-30 13:15 | 12.46304 | 121.75975 | 13379 ft | 357 kts | 143° |
| 2026-04-30 13:15 | 12.44265 | 121.77395 | 12928 ft | 353 kts | 143° |
| 2026-04-30 13:16 | 12.42229 | 121.78813 | 12478 ft | 349 kts | 143° |
| 2026-04-30 13:16 | 12.40245 | 121.80193 | 12037 ft | 346 kts | 143° |
| 2026-04-30 13:16 | 12.38241 | 121.81544 | 11582 ft | 343 kts | 148° |
| 2026-04-30 13:17 | 12.33587 | 121.82187 | 10611 ft | 346 kts | 188° |
| 2026-04-30 13:17 | 12.31269 | 121.81670 | 10367 ft | 337 kts | 190° |
| 2026-04-30 13:17 | 12.27544 | 121.80823 | 10122 ft | 316 kts | 189° |
| 2026-04-30 13:18 | 12.24739 | 121.80199 | 9916 ft | 302 kts | 189° |
| 2026-04-30 13:18 | 12.20655 | 121.79307 | 9159 ft | 299 kts | 189° |
| 2026-04-30 13:18 | 12.18620 | 121.78865 | 8785 ft | 297 kts | 189° |
| 2026-04-30 13:19 | 12.16579 | 121.78423 | 8410 ft | 296 kts | 189° |
| 2026-04-30 13:19 | 12.14580 | 121.77988 | 8046 ft | 294 kts | 188° |
| 2026-04-30 13:19 | 12.12571 | 121.77553 | 7679 ft | 293 kts | 188° |
| 2026-04-30 13:19 | 12.10570 | 121.77119 | 7314 ft | 291 kts | 188° |
| 2026-04-30 13:20 | 12.08596 | 121.76691 | 6953 ft | 289 kts | 188° |
| 2026-04-30 13:20 | 12.06620 | 121.76263 | 6591 ft | 288 kts | 188° |
| 2026-04-30 13:20 | 12.04672 | 121.75841 | 6236 ft | 287 kts | 188° |
| 2026-04-30 13:20 | 12.02718 | 121.75417 | 5879 ft | 286 kts | 188° |
| 2026-04-30 13:21 | 12.00777 | 121.74998 | 5525 ft | 284 kts | 188° |
| 2026-04-30 13:21 | 11.98827 | 121.74576 | 5171 ft | 283 kts | 188° |
| 2026-04-30 13:21 | 11.96905 | 121.74159 | 4819 ft | 281 kts | 188° |
| 2026-04-30 13:22 | 11.93076 | 121.73332 | 4124 ft | 278 kts | 188° |
| 2026-04-30 13:22 | 11.91179 | 121.73143 | 3798 ft | 269 kts | 169° |
| 2026-04-30 13:22 | 11.87964 | 121.74439 | 3749 ft | 232 kts | 147° |
| 2026-04-30 13:23 | 11.86535 | 121.75216 | 3753 ft | 232 kts | 147° |
| 2026-04-30 13:23 | 11.83997 | 121.77008 | 3705 ft | 207 kts | 110° |
| 2026-04-30 13:24 | 11.84418 | 121.79699 | 3767 ft | 199 kts | 61° |
| 2026-04-30 13:24 | 11.85805 | 121.82175 | 3188 ft | 202 kts | 62° |
| 2026-04-30 13:25 | 11.87023 | 121.84575 | 2650 ft | 172 kts | 63° |
| 2026-04-30 13:25 | 11.88054 | 121.86638 | 2442 ft | 160 kts | 63° |
| 2026-04-30 13:26 | 11.89553 | 121.89591 | 1386 ft | 165 kts | 63° |
| 2026-04-30 13:26 | 11.90563 | 121.91642 | 842 ft | 149 kts | 63° |
| 2026-04-30 13:27 | 11.91449 | 121.93417 | 431 ft | 137 kts | 63° |
| 2026-04-30 13:28 | 11.92681 | 121.95845 | 45 ft | 83 kts | 62° |
| 2026-04-30 13:28 | 11.92914 | 121.96303 | 63 ft | 14 kts | 66° |
| 2026-04-30 13:28 | 11.92936 | 121.96351 | 64 ft | 5 kts | 65° |
| 2026-04-30 13:29 | 11.92969 | 121.96433 | 64 ft | 5 kts | 91° |
| 2026-04-30 13:29 | 11.92898 | 121.96486 | 64 ft | 7 kts | 154° |
| 2026-04-30 13:30 | 11.92779 | 121.96501 | 62 ft | 7 kts | 237° |
| 2026-04-30 13:31 | 11.92740 | 121.96441 | 61 ft | 4 kts | 179° |
| 2026-04-30 13:31 | 11.92699 | 121.96460 | 61 ft | 0 kts | 152° |